5A6

Winona-Montgomery County Airport

Winona, Mississippi, USA
METAR K5A6 260535Z AUTO 00000KT 10SM -RA SCT070 OVC085 15/15 A2986 RMK AO2 P0002 T01540154
Observed Flight Rules
Apr-26 @ 05:35 UTC (23 minutes ago) Visual Flight Rules
Visibility Clouds Conditions
10 miles
  • Scattered at 7,000' AGL
  • Overcast at 8,500' AGL
  • Light Rain
Temperatures Readings Precipitation
Current 15°C / 59°F
Dewpoint 15°C / 59°F
Humidity 100%
Altimeter 29.86" Hg
Pressure 1011 hPa
Elevation 111
Current Rain 0.02
METAR K5A6 260535Z AUTO 00000KT 10SM -RA SCT070 OVC085 15/15 A2986 RMK AO2 P0002 T01540154
Observed Flight Rules
Apr-26 @ 05:35 UTC
(23 minutes ago)
VFR
Clouds
  • Scattered at 7,000' AGL
  • Overcast at 8,500' AGL
Conditions
  • Light Rain
Temperature Dewpoint
15°C / 59°F 15°C / 59°F
Humidity Altimeter Pressure
100% 29.86" Hg 1011 hPa
Current Rain
0.02